Time;durP1;ratioP1;P1;durP2;ratioP2;P2;SDS_P1;SDS_P2;PMS_P1;PMS_P2;Temp;Humidity;BMP_temperature;BMP_pressure;BME280_temperature;BME280_humidity;BME280_pressure;Samples;Min_cycle;Max_cycle;Signal;HPM_P1;HPM_P2
2021/01/24 00:02:51;;;;;;;19.08;10.75;;;;;;;0.83;98.00;99201.34;6221827;28;20054;-76
2021/01/24 00:05:52;;;;;;;18.88;10.68;;;;;;;0.85;98.66;99197.78;6221348;28;20084;-75
2021/01/24 00:08:53;;;;;;;18.67;10.77;;;;;;;0.86;98.87;99191.69;6221339;28;20054;-75
2021/01/24 00:11:53;;;;;;;23.27;10.93;;;;;;;0.89;98.53;99194.19;6221400;28;20046;-75
2021/01/24 00:14:55;;;;;;;19.23;10.07;;;;;;;0.89;98.05;99194.19;6256460;23;20053;-75
2021/01/24 00:17:56;;;;;;;18.83;9.57;;;;;;;0.90;98.28;99185.50;6274077;28;20095;-75
2021/01/24 00:20:57;;;;;;;19.30;10.10;;;;;;;0.93;98.46;99187.16;6250029;28;20076;-75
2021/01/24 00:23:58;;;;;;;20.35;11.02;;;;;;;0.88;98.18;99177.00;6255389;28;20050;-76
2021/01/24 00:26:59;;;;;;;21.13;10.90;;;;;;;0.92;98.42;99178.56;6250062;28;20490;-75
2021/01/24 00:30:01;;;;;;;24.75;11.75;;;;;;;0.99;98.44;99176.56;6251674;28;20048;-75
2021/01/24 00:33:02;;;;;;;21.88;11.45;;;;;;;1.01;98.41;99175.59;6276126;28;20053;-74
2021/01/24 00:36:04;;;;;;;23.10;12.15;;;;;;;1.04;97.84;99182.38;6274906;28;20071;-75
2021/01/24 00:39:05;;;;;;;24.05;12.88;;;;;;;1.03;98.62;99178.13;6274651;28;20052;-75
2021/01/24 00:42:06;;;;;;;22.25;11.77;;;;;;;1.00;97.53;99180.84;6275259;28;20045;-75
2021/01/24 00:45:09;;;;;;;21.42;12.43;;;;;;;0.97;98.08;99184.38;6275936;28;20056;-75
2021/01/24 00:48:10;;;;;;;20.67;11.65;;;;;;;1.00;97.86;99176.50;6274916;28;20048;-75
2021/01/24 00:51:11;;;;;;;25.15;11.55;;;;;;;0.97;97.32;99183.53;6273850;28;20048;-74
2021/01/24 00:54:12;;;;;;;21.27;12.32;;;;;;;0.96;97.58;99172.38;6250068;28;20053;-74
2021/01/24 00:57:13;;;;;;;23.00;12.77;;;;;;;0.99;97.26;99173.97;6249856;28;20057;-73
2021/01/24 01:00:16;;;;;;;25.02;12.18;;;;;;;1.04;97.83;99173.78;6249562;28;20490;-73
2021/01/24 01:03:17;;;;;;;21.70;12.30;;;;;;;1.02;98.57;99172.09;6249881;28;20049;-73
2021/01/24 01:06:18;;;;;;;22.17;12.88;;;;;;;1.06;97.71;99172.00;6249300;28;20137;-73
2021/01/24 01:09:19;;;;;;;21.38;12.57;;;;;;;1.08;98.15;99175.34;6249185;28;20077;-73
2021/01/24 01:12:19;;;;;;;28.13;13.35;;;;;;;1.09;97.06;99179.63;6249683;28;20062;-73
2021/01/24 01:15:22;;;;;;;23.98;12.20;;;;;;;1.05;97.83;99178.91;6261980;28;20041;-73
2021/01/24 01:18:23;;;;;;;23.08;12.85;;;;;;;1.04;97.31;99184.97;6274309;28;20164;-73
2021/01/24 01:21:25;;;;;;;27.50;13.88;;;;;;;1.07;98.10;99184.84;6272063;28;20045;-73
2021/01/24 01:24:25;;;;;;;26.80;13.88;;;;;;;1.10;98.31;99182.16;6274109;28;20052;-73
2021/01/24 01:27:26;;;;;;;28.08;14.50;;;;;;;1.12;98.69;99185.50;6272838;28;20049;-73
2021/01/24 01:30:28;;;;;;;23.00;13.98;;;;;;;1.15;98.26;99184.56;6273536;28;20104;-73
2021/01/24 01:33:29;;;;;;;27.58;14.55;;;;;;;1.13;98.08;99187.19;6273671;28;20049;-73
2021/01/24 01:36:30;;;;;;;23.05;13.15;;;;;;;1.12;98.09;99177.75;6273666;28;20057;-73
2021/01/24 01:39:31;;;;;;;29.60;14.15;;;;;;;1.15;99.10;99177.63;6274432;28;20073;-72
2021/01/24 01:42:32;;;;;;;25.83;13.85;;;;;;;1.15;98.92;99179.38;6273813;28;20049;-73
2021/01/24 01:45:34;;;;;;;31.08;14.95;;;;;;;1.17;98.98;99175.81;6273523;28;20053;-73
2021/01/24 01:48:35;;;;;;;29.40;15.15;;;;;;;1.21;98.45;99177.38;6273266;28;20056;-74
2021/01/24 01:51:36;;;;;;;34.72;16.70;;;;;;;1.22;97.92;99179.06;6272680;28;20045;-73
2021/01/24 01:54:37;;;;;;;32.20;17.17;;;;;;;1.23;97.88;99178.19;6273557;28;20049;-73
2021/01/24 01:57:38;;;;;;;32.20;15.65;;;;;;;1.24;98.27;99166.09;6272963;28;20053;-74
2021/01/24 02:00:39;;;;;;;30.23;16.73;;;;;;;1.23;98.75;99167.00;6273162;28;20045;-74
2021/01/24 02:03:54;;;;;;;30.95;16.85;;;;;;;1.25;98.29;99166.00;6273110;28;20049;-73
2021/01/24 02:07:01;;;;;;;29.98;15.85;;;;;;;1.28;98.99;99162.47;6272920;28;20052;-73
2021/01/24 02:10:10;;;;;;;36.75;17.75;;;;;;;1.23;98.04;99162.66;6273688;28;20509;-73
2021/01/24 02:13:21;;;;;;;31.52;17.42;;;;;;;1.22;98.41;99168.72;6272975;28;20053;-73
2021/01/24 02:16:24;;;;;;;35.38;16.85;;;;;;;1.25;98.92;99163.41;6272524;28;20056;-74
2021/01/24 02:19:41;;;;;;;32.17;16.83;;;;;;;1.27;98.37;99156.47;6272170;28;20053;-74
2021/01/24 02:22:45;;;;;;;32.30;17.85;;;;;;;1.30;99.07;99160.66;6253980;28;20049;-74
2021/01/24 02:25:51;;;;;;;27.27;16.23;;;;;;;1.31;98.69;99158.91;6247917;28;20052;-74
2021/01/24 02:29:09;;;;;;;31.42;15.85;;;;;;;1.37;98.57;99156.06;6247628;28;20046;-74
2021/01/24 02:32:15;;;;;;;33.70;17.02;;;;;;;1.31;98.72;99158.91;6247637;28;20053;-73
2021/01/24 02:35:16;;;;;;;31.00;16.77;;;;;;;1.35;99.19;99158.72;6247615;28;20495;-73
2021/01/24 02:38:19;;;;;;;31.30;17.50;;;;;;;1.33;98.96;99154.50;6247091;28;20049;-74
2021/01/24 02:41:20;;;;;;;32.35;16.95;;;;;;;1.33;99.34;99150.19;6293842;28;20040;-74
2021/01/24 02:44:21;;;;;;;31.27;17.45;;;;;;;1.38;98.95;99165.53;6296868;28;20091;-74
2021/01/24 02:47:24;;;;;;;33.70;18.17;;;;;;;1.39;99.24;99170.63;6296737;28;20059;-74
2021/01/24 02:50:26;;;;;;;31.17;16.65;;;;;;;1.36;99.22;99160.38;6292212;28;20041;-74
2021/01/24 02:53:28;;;;;;;40.55;17.98;;;;;;;1.31;98.40;99164.06;6247284;28;20041;-74
2021/01/24 02:56:29;;;;;;;35.85;17.88;;;;;;;1.32;98.88;99173.50;6246855;28;20045;-74
2021/01/24 02:59:31;;;;;;;35.13;17.38;;;;;;;1.33;99.17;99170.03;6246987;28;20139;-74
2021/01/24 03:02:33;;;;;;;33.90;18.05;;;;;;;1.31;98.75;99164.91;6259680;28;20056;-74
2021/01/24 03:05:34;;;;;;;34.03;16.65;;;;;;;1.31;98.88;99167.50;6271939;28;20052;-74
2021/01/24 03:08:35;;;;;;;33.72;17.92;;;;;;;1.32;99.13;99165.75;6276652;28;20416;-74
2021/01/24 03:11:41;;;;;;;30.73;17.75;;;;;;;1.30;99.12;99168.41;6296586;28;20052;-74
2021/01/24 03:14:42;;;;;;;32.20;16.50;;;;;;;1.31;98.53;99172.66;6296231;28;20048;-74
2021/01/24 03:17:47;;;;;;;33.38;17.27;;;;;;;1.32;99.40;99170.94;6296117;28;20048;-73
2021/01/24 03:20:50;;;;;;;36.42;18.13;;;;;;;1.30;98.89;99165.81;6281466;28;20057;-73
2021/01/24 03:23:52;;;;;;;32.35;16.63;;;;;;;1.27;99.51;99163.34;6246563;28;20045;-73
2021/01/24 03:26:54;;;;;;;33.67;16.40;;;;;;;1.25;98.82;99163.41;6246652;28;20116;-74
2021/01/24 03:29:54;;;;;;;30.67;16.92;;;;;;;1.28;99.02;99167.66;6246033;28;20046;-74
2021/01/24 03:32:57;;;;;;;32.92;16.95;;;;;;;1.31;98.98;99167.50;6246690;28;20487;-73
2021/01/24 03:35:58;;;;;;;29.38;15.60;;;;;;;1.28;98.19;99167.66;6245720;28;20107;-74
2021/01/24 03:38:58;;;;;;;29.80;16.60;;;;;;;1.26;98.46;99169.44;6262272;28;20049;-73
2021/01/24 03:42:00;;;;;;;32.28;16.15;;;;;;;1.28;98.73;99165.06;6296126;28;20432;-74
2021/01/24 03:45:00;;;;;;;26.65;16.02;;;;;;;1.27;98.34;99173.69;6295867;28;20542;-76
2021/01/24 03:48:02;;;;;;;32.00;17.15;;;;;;;1.26;98.90;99167.69;6281830;28;20053;-75
2021/01/24 03:51:04;;;;;;;30.15;14.82;;;;;;;1.29;98.59;99171.06;6260796;28;20052;-75
2021/01/24 03:54:05;;;;;;;27.33;15.25;;;;;;;1.26;99.43;99170.28;6270672;28;20048;-75
2021/01/24 03:57:06;;;;;;;28.55;15.45;;;;;;;1.25;98.98;99172.94;6300704;28;20052;-75
2021/01/24 04:00:08;;;;;;;29.65;16.38;;;;;;;1.23;98.82;99174.75;6282716;28;20048;-75
2021/01/24 04:03:09;;;;;;;30.60;16.73;;;;;;;1.23;98.59;99173.00;6276010;28;20568;-75
2021/01/24 04:06:10;;;;;;;35.75;18.40;;;;;;;1.24;99.39;99169.50;6275557;28;20426;-75
2021/01/24 04:09:11;;;;;;;31.50;16.35;;;;;;;1.24;99.84;99171.25;6275444;28;20045;-73
2021/01/24 04:12:12;;;;;;;31.27;16.77;;;;;;;1.21;99.65;99166.19;6275932;28;20045;-73
2021/01/24 04:15:15;;;;;;;35.25;17.80;;;;;;;1.23;100.00;99167.84;6275889;28;20045;-72
2021/01/24 04:18:17;;;;;;;34.65;17.30;;;;;;;1.22;100.00;99163.53;6275614;28;20049;-75
2021/01/24 04:21:18;;;;;;;30.23;17.00;;;;;;;1.23;100.00;99165.25;6274447;28;20045;-75
2021/01/24 04:24:19;;;;;;;34.47;16.95;;;;;;;1.20;100.00;99162.78;6275222;28;20464;-75
2021/01/24 04:27:20;;;;;;;30.10;16.17;;;;;;;1.18;100.00;99158.56;6275082;28;20098;-75
2021/01/24 04:30:21;;;;;;;29.90;16.45;;;;;;;1.18;100.00;99161.13;6274872;28;20049;-75
2021/01/24 04:33:23;;;;;;;31.08;16.65;;;;;;;1.23;100.00;99159.22;6275460;28;20111;-73
2021/01/24 04:36:24;;;;;;;35.95;17.17;;;;;;;1.21;100.00;99161.03;6274881;28;20056;-73
2021/01/24 04:39:24;;;;;;;30.35;17.05;;;;;;;1.24;100.00;99163.50;6275710;28;20111;-73
2021/01/24 04:42:25;;;;;;;33.08;16.55;;;;;;;1.25;100.00;99155.66;6250255;28;20053;-72
2021/01/24 04:45:27;;;;;;;31.15;16.15;;;;;;;1.23;99.83;99161.81;6250086;28;20395;-73
2021/01/24 04:48:29;;;;;;;26.73;14.80;;;;;;;1.25;99.61;99154.81;6250150;28;20418;-75
2021/01/24 04:51:31;;;;;;;28.33;15.52;;;;;;;1.24;100.00;99163.50;6249606;28;20060;-75
2021/01/24 04:54:32;;;;;;;30.52;17.02;;;;;;;1.17;99.34;99157.72;6249870;28;20076;-73
2021/01/24 04:57:35;;;;;;;29.00;15.93;;;;;;;1.22;100.00;99162.69;6249739;28;20414;-73
2021/01/24 05:00:36;;;;;;;32.28;16.90;;;;;;;1.26;100.00;99159.09;6249697;28;20052;-76
2021/01/24 05:03:38;;;;;;;30.38;15.75;;;;;;;1.31;100.00;99158.91;6249764;28;20388;-75
2021/01/24 05:06:39;;;;;;;31.00;17.08;;;;;;;1.30;100.00;99168.41;6249664;28;20056;-75
2021/01/24 05:09:41;;;;;;;31.35;16.23;;;;;;;1.34;100.00;99158.78;6249236;28;20057;-75
2021/01/24 05:12:44;;;;;;;27.88;16.05;;;;;;;1.30;100.00;99158.06;6296515;28;20474;-73
2021/01/24 05:15:46;;;;;;;36.13;17.35;;;;;;;1.31;100.00;99159.72;6298807;28;20402;-73
2021/01/24 05:18:56;;;;;;;30.10;16.25;;;;;;;1.45;98.70;99157.44;6260868;28;20049;-73
2021/01/24 05:21:57;;;;;;;30.30;15.55;;;;;;;1.27;98.53;99168.53;6249899;28;20145;-73
2021/01/24 05:24:58;;;;;;;27.55;15.40;;;;;;;1.25;99.97;99165.16;6249441;28;20245;-73
2021/01/24 05:28:17;;;;;;;30.27;16.65;;;;;;;1.26;100.00;99170.28;6255090;28;20140;-73
2021/01/24 05:31:22;;;;;;;30.67;16.83;;;;;;;1.28;100.00;99165.06;6272695;28;20037;-74
2021/01/24 05:34:24;;;;;;;33.47;17.98;;;;;;;1.25;100.00;99160.84;6273812;28;20460;-73
2021/01/24 05:37:25;;;;;;;33.45;16.75;;;;;;;1.26;100.00;99161.66;6273513;28;20532;-74
2021/01/24 05:40:25;;;;;;;33.97;16.77;;;;;;;1.19;100.00;99165.44;6274318;28;20041;-73
2021/01/24 05:43:33;;;;;;;31.70;17.60;;;;;;;1.17;100.00;99168.06;6298432;28;20052;-73
2021/01/24 05:46:33;;;;;;;32.97;15.82;;;;;;;1.20;100.00;99165.34;6288505;28;20056;-74
2021/01/24 05:49:36;;;;;;;37.30;17.15;;;;;;;1.18;100.00;99174.94;6271185;28;20505;-74
2021/01/24 05:52:41;;;;;;;35.22;17.02;;;;;;;1.10;100.00;99171.81;6273610;28;20045;-73
2021/01/24 05:55:44;;;;;;;28.33;16.05;;;;;;;1.10;100.00;99178.75;6257515;28;20453;-73
2021/01/24 05:58:52;;;;;;;39.35;18.55;;;;;;;1.02;100.00;99179.03;6247928;28;20136;-73
2021/01/24 06:01:53;;;;;;;34.15;18.45;;;;;;;1.06;100.00;99182.34;6248679;28;20096;-73
2021/01/24 06:04:55;;;;;;;34.45;18.05;;;;;;;0.98;100.00;99186.06;6248105;28;20494;-73
2021/01/24 06:07:57;;;;;;;36.72;19.40;;;;;;;0.99;100.00;99190.31;6248516;28;20073;-76
2021/01/24 06:10:58;;;;;;;36.03;19.02;;;;;;;1.02;100.00;99189.38;6273472;28;20049;-73
2021/01/24 06:14:01;;;;;;;36.13;17.92;;;;;;;1.04;100.00;99197.06;6272312;28;20053;-74
2021/01/24 06:17:06;;;;;;;38.40;19.13;;;;;;;1.01;100.00;99201.47;6267051;28;20468;-72
2021/01/24 06:20:12;;;;;;;35.67;18.05;;;;;;;1.05;100.00;99202.19;6276686;28;20041;-73
2021/01/24 06:23:19;;;;;;;39.53;19.70;;;;;;;1.06;100.00;99203.88;6262838;28;20049;-73
2021/01/24 06:26:21;;;;;;;33.80;18.35;;;;;;;1.10;100.00;99202.03;6247748;28;20099;-73
2021/01/24 06:29:25;;;;;;;35.08;18.50;;;;;;;1.06;100.00;99211.63;6253013;28;20049;-76
2021/01/24 06:32:28;;;;;;;37.35;19.17;;;;;;;1.03;100.00;99209.16;6272624;28;20044;-75
2021/01/24 06:35:30;;;;;;;37.92;18.75;;;;;;;1.06;100.00;99215.97;6271951;28;20060;-74
2021/01/24 06:38:33;;;;;;;35.35;18.90;;;;;;;1.02;100.00;99218.66;6272328;28;20056;-73
2021/01/24 06:41:47;;;;;;;39.10;20.88;;;;;;;1.07;100.00;99226.25;6271344;28;20087;-73
2021/01/24 06:44:48;;;;;;;39.15;19.25;;;;;;;1.11;100.00;99226.97;6271466;28;20052;-73
2021/01/24 06:47:49;;;;;;;36.47;19.55;;;;;;;1.16;100.00;99225.03;6271944;28;20052;-73
2021/01/24 06:50:51;;;;;;;30.33;18.40;;;;;;;1.12;100.00;99236.41;6271760;28;20048;-72
2021/01/24 06:53:52;;;;;;;38.97;19.00;;;;;;;1.15;100.00;99238.88;6271902;28;20045;-73
2021/01/24 06:56:53;;;;;;;39.78;18.95;;;;;;;1.12;100.00;99239.00;6271414;28;20087;-73
2021/01/24 07:00:18;;;;;;;38.05;19.65;;;;;;;1.09;100.00;99250.31;6271559;28;20045;-75
2021/01/24 07:03:20;;;;;;;41.80;18.95;;;;;;;1.10;100.00;99253.75;6271169;28;20052;-74
2021/01/24 07:06:32;;;;;;;42.42;19.60;;;;;;;1.13;100.00;99261.38;6271610;28;20099;-75
2021/01/24 07:09:41;;;;;;;35.58;19.77;;;;;;;1.23;100.00;99268.75;6271275;28;20080;-74
2021/01/24 07:12:45;;;;;;;34.83;18.02;;;;;;;1.10;100.00;99266.69;6268359;28;20128;-75
2021/01/24 07:15:52;;;;;;;34.05;18.35;;;;;;;1.13;100.00;99269.97;6246557;28;20055;-75
2021/01/24 07:18:53;;;;;;;35.42;19.27;;;;;;;1.11;100.00;99276.13;6247800;28;20049;-74
2021/01/24 07:21:55;;;;;;;39.50;19.65;;;;;;;1.12;100.00;99278.66;6267820;28;20041;-74
2021/01/24 07:24:56;;;;;;;37.85;18.88;;;;;;;1.24;100.00;99282.53;6270883;28;20049;-75
2021/01/24 07:27:58;;;;;;;32.67;18.75;;;;;;;1.05;100.00;99284.97;6270723;28;20394;-74
2021/01/24 07:31:03;;;;;;;37.33;19.00;;;;;;;1.04;100.00;99285.84;6269153;28;20044;-74
2021/01/24 07:34:04;;;;;;;34.80;18.77;;;;;;;1.09;100.00;99285.69;6269652;28;20064;-74
2021/01/24 07:37:07;;;;;;;35.72;18.83;;;;;;;1.06;100.00;99291.81;6261176;28;20049;-75
2021/01/24 07:40:09;;;;;;;34.33;18.80;;;;;;;1.01;100.00;99299.75;6270682;28;20413;-74
2021/01/24 07:43:10;;;;;;;33.10;18.10;;;;;;;1.10;100.00;99300.31;6271688;28;20417;-75
2021/01/24 07:46:11;;;;;;;39.45;19.17;;;;;;;1.00;100.00;99311.00;6295536;28;20060;-75
2021/01/24 07:49:12;;;;;;;37.72;18.35;;;;;;;1.05;100.00;99307.41;6295543;28;20398;-74
2021/01/24 07:52:16;;;;;;;36.10;20.17;;;;;;;1.05;100.00;99310.84;6285616;28;20124;-74
2021/01/24 07:55:18;;;;;;;38.10;20.23;;;;;;;1.05;100.00;99318.59;6270998;28;20143;-74
2021/01/24 07:58:20;;;;;;;36.38;19.88;;;;;;;1.20;100.00;99317.16;6265584;28;20045;-75
2021/01/24 08:01:21;;;;;;;39.40;18.85;;;;;;;1.13;100.00;99318.28;6263984;28;20493;-74
2021/01/24 08:04:23;;;;;;;42.50;19.98;;;;;;;1.09;100.00;99325.34;6270355;28;20394;-74
2021/01/24 08:07:28;;;;;;;40.28;18.90;;;;;;;1.09;100.00;99319.31;6270520;28;20064;-75
2021/01/24 08:10:30;;;;;;;44.78;21.10;;;;;;;1.10;100.00;99321.00;6260651;28;20054;-75
2021/01/24 08:13:31;;;;;;;45.33;19.58;;;;;;;1.11;100.00;99322.69;6273699;28;20049;-75
2021/01/24 08:16:34;;;;;;;37.53;18.83;;;;;;;1.11;100.00;99330.44;6267884;28;20049;-74
2021/01/24 08:19:37;;;;;;;45.17;20.65;;;;;;;1.11;100.00;99327.88;6268612;28;20513;-75
2021/01/24 08:22:38;;;;;;;38.97;20.83;;;;;;;1.09;100.00;99335.69;6270082;28;20041;-75
2021/01/24 08:25:40;;;;;;;53.70;26.33;;;;;;;1.13;100.00;99339.00;6268534;28;20049;-75
2021/01/24 08:28:42;;;;;;;49.05;24.83;;;;;;;1.20;100.00;99350.81;6269386;28;20490;-74
2021/01/24 08:31:45;;;;;;;43.70;23.58;;;;;;;1.21;100.00;99345.56;6270653;28;20076;-75
2021/01/24 08:34:46;;;;;;;43.20;21.90;;;;;;;1.24;100.00;99347.19;6270378;28;20068;-75
2021/01/24 08:37:48;;;;;;;65.68;31.90;;;;;;;1.27;100.00;99355.69;6272923;28;20122;-74
2021/01/24 08:40:50;;;;;;;43.35;20.73;;;;;;;1.29;100.00;99367.72;6273844;28;20508;-75
2021/01/24 08:44:01;;;;;;;40.58;19.75;;;;;;;1.25;100.00;99372.16;6276351;28;20106;-74
2021/01/24 08:47:04;;;;;;;44.42;22.90;;;;;;;1.29;100.00;99368.56;6274730;28;20492;-75
2021/01/24 08:50:07;;;;;;;67.78;33.78;;;;;;;1.35;100.00;99367.50;6269087;28;20544;-75
2021/01/24 08:53:09;;;;;;;65.85;31.73;;;;;;;1.40;100.00;99375.91;6268660;28;20052;-75
2021/01/24 08:56:20;;;;;;;79.60;38.65;;;;;;;1.45;100.00;99377.47;6269034;28;20053;-74
2021/01/24 08:59:25;;;;;;;116.40;56.90;;;;;;;1.48;100.00;99377.31;6274004;28;20045;-73
2021/01/24 09:02:32;;;;;;;101.30;49.75;;;;;;;1.49;100.00;99379.00;6274817;28;20049;-74
2021/01/24 09:05:35;;;;;;;128.48;60.70;;;;;;;1.52;100.00;99385.81;6274452;28;20459;-74
2021/01/24 09:08:44;;;;;;;97.13;50.15;;;;;;;1.53;100.00;99382.31;6260575;28;20053;-74
2021/01/24 09:11:45;;;;;;;167.43;71.72;;;;;;;1.55;100.00;99390.03;6259664;28;20040;-74
2021/01/24 09:14:47;;;;;;;154.35;63.60;;;;;;;1.59;100.00;99389.88;6274316;28;20049;-74
2021/01/24 09:17:48;;;;;;;64.35;31.25;;;;;;;1.59;100.00;99392.47;6274262;28;20493;-73
2021/01/24 09:20:49;;;;;;;56.42;27.88;;;;;;;1.59;100.00;99399.34;6273785;28;20494;-74
2021/01/24 09:23:53;;;;;;;40.38;22.67;;;;;;;1.61;100.00;99401.00;6274301;28;20052;-74
2021/01/24 09:26:55;;;;;;;41.95;22.58;;;;;;;1.70;100.00;99404.97;6249939;28;20054;-74
2021/01/24 09:29:56;;;;;;;37.38;20.30;;;;;;;1.68;100.00;99418.00;6249042;28;20049;-76
2021/01/24 09:32:58;;;;;;;34.00;19.08;;;;;;;1.74;100.00;99422.09;6249152;28;20141;-75
2021/01/24 09:35:59;;;;;;;31.73;17.02;;;;;;;1.69;100.00;99421.44;6248919;28;20053;-75
2021/01/24 09:39:00;;;;;;;34.35;18.17;;;;;;;1.61;100.00;99431.22;6248645;28;20430;-74
2021/01/24 09:42:01;;;;;;;30.40;16.95;;;;;;;1.79;100.00;99433.13;6255137;28;20516;-78
2021/01/24 09:45:04;;;;;;;32.95;18.15;;;;;;;1.78;99.78;99439.19;6273605;28;20049;-75
2021/01/24 09:48:05;;;;;;;34.75;18.48;;;;;;;1.70;100.00;99444.66;6272646;28;20053;-76
2021/01/24 09:51:08;;;;;;;36.83;19.23;;;;;;;1.69;100.00;99437.81;6272841;28;20460;-75
2021/01/24 09:54:14;;;;;;;41.88;20.88;;;;;;;1.61;100.00;99445.00;6273275;28;20064;-76
2021/01/24 09:57:15;;;;;;;37.75;20.10;;;;;;;1.70;100.00;99449.00;6272971;28;20418;-77
2021/01/24 10:00:17;;;;;;;38.15;21.55;;;;;;;1.78;100.00;99453.00;6273035;28;20135;-75
2021/01/24 10:03:18;;;;;;;34.97;18.90;;;;;;;1.84;100.00;99453.66;6273321;28;20049;-75
2021/01/24 10:06:20;;;;;;;30.58;18.17;;;;;;;1.90;100.00;99456.84;6271952;28;20417;-75
2021/01/24 10:09:22;;;;;;;34.85;19.05;;;;;;;1.87;100.00;99461.31;6272453;28;20464;-75
2021/01/24 10:12:23;;;;;;;37.92;18.17;;;;;;;1.90;100.00;99462.03;6285296;28;20051;-75
2021/01/24 10:15:24;;;;;;;37.38;20.70;;;;;;;1.84;100.00;99471.78;6297498;28;20064;-76
2021/01/24 10:18:25;;;;;;;36.50;19.40;;;;;;;1.95;100.00;99477.38;6279209;28;20080;-74
2021/01/24 10:21:26;;;;;;;39.78;21.48;;;;;;;1.95;100.00;99474.78;6270663;28;20052;-75
2021/01/24 10:24:27;;;;;;;39.72;20.73;;;;;;;2.04;100.00;99482.22;6272537;28;20045;-75
2021/01/24 10:27:28;;;;;;;34.17;19.15;;;;;;;1.98;100.00;99477.28;6268342;28;20076;-73
2021/01/24 10:30:29;;;;;;;36.67;18.05;;;;;;;1.92;100.00;99486.13;6262789;28;20049;-72
2021/01/24 10:33:30;;;;;;;38.40;20.02;;;;;;;1.86;100.00;99488.09;6264027;28;20143;-73
2021/01/24 10:36:31;;;;;;;36.33;20.60;;;;;;;2.00;100.00;99488.44;6266688;28;20049;-73
2021/01/24 10:39:33;;;;;;;35.28;20.00;;;;;;;2.00;100.00;99491.88;6260131;28;20049;-73
2021/01/24 10:42:33;;;;;;;34.92;19.33;;;;;;;1.97;99.15;99491.13;6260282;28;20053;-72
2021/01/24 10:45:36;;;;;;;38.15;20.20;;;;;;;1.85;99.71;99489.00;6248477;28;20127;-73
2021/01/24 10:48:39;;;;;;;36.95;20.48;;;;;;;1.91;100.00;99499.16;6246391;28;20509;-72
2021/01/24 10:51:40;;;;;;;40.72;20.10;;;;;;;1.93;99.22;99499.94;6250322;28;20045;-72
2021/01/24 10:54:41;;;;;;;41.20;21.85;;;;;;;1.96;100.00;99505.84;6271916;28;20106;-71
2021/01/24 10:57:42;;;;;;;38.00;20.38;;;;;;;2.18;99.49;99498.09;6271260;28;20410;-71
2021/01/24 11:00:43;;;;;;;38.60;19.88;;;;;;;2.06;97.57;99495.97;6271219;28;20044;-72
2021/01/24 11:03:44;;;;;;;39.17;21.48;;;;;;;2.12;98.35;99506.09;6257481;28;20399;-72
2021/01/24 11:06:45;;;;;;;38.13;22.25;;;;;;;2.17;99.58;99509.34;6262644;28;20045;-72
2021/01/24 11:09:48;;;;;;;36.28;20.13;;;;;;;2.20;99.88;99498.84;6261973;28;20045;-73
2021/01/24 11:12:48;;;;;;;38.10;19.25;;;;;;;2.25;100.00;99504.72;6261334;28;20072;-72
2021/01/24 11:15:49;;;;;;;34.55;19.20;;;;;;;2.33;100.00;99504.41;6264236;28;20061;-73
2021/01/24 11:18:50;;;;;;;37.63;20.08;;;;;;;2.37;98.59;99505.97;6270567;28;20056;-73
2021/01/24 11:21:51;;;;;;;36.38;19.30;;;;;;;2.41;99.42;99509.31;6267289;28;20048;-73
2021/01/24 11:24:53;;;;;;;31.33;17.33;;;;;;;2.44;99.34;99506.56;6271181;28;20055;-73
2021/01/24 11:27:53;;;;;;;33.55;20.80;;;;;;;2.49;100.00;99513.25;6264588;28;20045;-71
2021/01/24 11:30:54;;;;;;;34.15;19.65;;;;;;;2.49;98.45;99507.22;6269515;28;20056;-73
2021/01/24 11:33:55;;;;;;;33.25;18.85;;;;;;;2.61;98.13;99509.34;6270967;28;20140;-72
2021/01/24 11:36:56;;;;;;;37.58;19.55;;;;;;;2.60;97.43;99517.19;6270850;28;20053;-73
2021/01/24 11:39:58;;;;;;;33.42;18.05;;;;;;;2.56;97.50;99516.44;6270558;28;20048;-72
2021/01/24 11:42:58;;;;;;;30.88;17.85;;;;;;;2.60;97.57;99519.78;6285815;28;20044;-74
2021/01/24 11:46:00;;;;;;;31.75;18.55;;;;;;;2.56;97.16;99520.81;6270422;28;20527;-73
2021/01/24 11:49:01;;;;;;;30.92;18.20;;;;;;;2.51;95.93;99520.97;6267245;28;20533;-72
2021/01/24 11:52:02;;;;;;;36.15;18.65;;;;;;;2.48;94.96;99527.13;6246107;28;20050;-72
2021/01/24 11:55:04;;;;;;;34.67;20.42;;;;;;;2.40;95.40;99523.16;6246431;28;20188;-72
2021/01/24 11:58:05;;;;;;;32.33;19.27;;;;;;;2.48;95.40;99527.13;6245667;28;20055;-72
2021/01/24 12:01:06;;;;;;;34.08;19.92;;;;;;;2.36;96.07;99530.19;6245909;28;20494;-73
2021/01/24 12:04:07;;;;;;;34.47;19.15;;;;;;;2.49;95.14;99531.41;6246065;28;20046;-72
2021/01/24 12:07:08;;;;;;;33.13;19.20;;;;;;;2.45;94.09;99535.03;6245681;28;20156;-72
2021/01/24 12:10:11;;;;;;;35.13;19.17;;;;;;;2.50;96.13;99533.13;6245493;28;20057;-72
2021/01/24 12:13:12;;;;;;;35.38;20.23;;;;;;;2.56;95.29;99538.94;6296211;28;20044;-72
2021/01/24 12:16:14;;;;;;;35.35;20.35;;;;;;;2.59;95.65;99544.88;6300101;28;20582;-71
2021/01/24 12:19:14;;;;;;;36.95;22.00;;;;;;;2.49;95.21;99544.38;6271275;28;20056;-71
2021/01/24 12:22:15;;;;;;;37.28;19.10;;;;;;;2.62;94.41;99541.28;6262288;28;20041;-72
2021/01/24 12:25:17;;;;;;;30.48;17.35;;;;;;;2.62;92.23;99543.88;6275217;28;20052;-73
2021/01/24 12:28:18;;;;;;;33.50;18.13;;;;;;;2.41;92.64;99546.44;6274326;28;20049;-71
2021/01/24 12:31:19;;;;;;;33.33;17.63;;;;;;;2.39;93.70;99539.63;6274827;28;20068;-72
2021/01/24 12:34:19;;;;;;;34.03;17.98;;;;;;;2.45;94.19;99540.22;6274933;28;20524;-73
2021/01/24 12:37:21;;;;;;;33.22;18.75;;;;;;;2.34;94.50;99541.53;6274960;28;20079;-73
2021/01/24 12:40:22;;;;;;;34.40;18.00;;;;;;;2.44;94.88;99543.69;6274433;28;20099;-73
2021/01/24 12:43:23;;;;;;;33.03;18.40;;;;;;;2.32;94.19;99549.38;6295804;28;20098;-73
2021/01/24 12:46:24;;;;;;;32.78;18.73;;;;;;;2.49;94.53;99546.97;6299457;28;20498;-71
2021/01/24 12:49:25;;;;;;;46.50;22.90;;;;;;;2.46;95.20;99548.84;6249361;28;20079;-72
2021/01/24 12:52:25;;;;;;;46.83;25.17;;;;;;;2.18;96.25;99554.22;6249908;28;20056;-72
2021/01/24 12:55:27;;;;;;;42.15;23.48;;;;;;;2.28;96.51;99558.19;6249501;28;20053;-72
2021/01/24 12:58:29;;;;;;;50.10;26.08;;;;;;;2.13;97.77;99558.75;6249756;28;20064;-72
2021/01/24 13:01:30;;;;;;;53.25;27.48;;;;;;;2.10;97.45;99559.72;6249634;28;20049;-72
2021/01/24 13:04:31;;;;;;;52.13;27.58;;;;;;;2.19;96.74;99564.56;6249820;28;20061;-73
2021/01/24 13:07:32;;;;;;;51.90;28.15;;;;;;;2.13;97.59;99557.00;6249556;28;20045;-73
2021/01/24 13:10:34;;;;;;;50.28;26.83;;;;;;;2.28;96.65;99551.25;6256556;28;20084;-72
2021/01/24 13:13:34;;;;;;;56.05;28.15;;;;;;;2.23;96.51;99554.94;6299090;28;20098;-73
2021/01/24 13:16:35;;;;;;;56.10;28.90;;;;;;;2.29;95.77;99552.09;6283961;28;20045;-72
2021/01/24 13:19:36;;;;;;;53.55;27.35;;;;;;;2.33;96.35;99555.41;6273788;28;20107;-72
2021/01/24 13:22:37;;;;;;;55.13;28.58;;;;;;;2.70;95.19;99555.63;6273392;28;20518;-71
2021/01/24 13:25:39;;;;;;;55.05;28.35;;;;;;;2.59;94.74;99557.84;6273050;28;20444;-73
2021/01/24 13:28:39;;;;;;;54.30;27.08;;;;;;;2.63;94.64;99554.19;6273440;28;20079;-72
2021/01/24 13:31:40;;;;;;;50.65;26.52;;;;;;;2.86;93.03;99561.06;6273883;28;20045;-72
2021/01/24 13:34:41;;;;;;;47.35;23.90;;;;;;;3.00;93.77;99553.56;6268415;28;20411;-73
2021/01/24 13:37:42;;;;;;;53.08;25.25;;;;;;;3.03;91.00;99560.34;6272636;28;20102;-73
2021/01/24 13:40:44;;;;;;;47.58;25.80;;;;;;;2.99;92.02;99564.81;6274211;28;20097;-73
2021/01/24 13:43:45;;;;;;;54.50;27.52;;;;;;;2.78;92.57;99569.16;6273796;28;20053;-72
2021/01/24 13:46:46;;;;;;;55.80;29.70;;;;;;;2.69;93.89;99571.28;6253023;28;20498;-73
2021/01/24 13:49:46;;;;;;;61.42;31.40;;;;;;;2.79;94.36;99564.81;6248640;28;20046;-72
2021/01/24 13:52:47;;;;;;;63.22;30.05;;;;;;;2.75;93.49;99565.84;6248695;28;20091;-73
2021/01/24 13:55:49;;;;;;;57.78;29.60;;;;;;;2.85;93.32;99564.53;6248835;28;20533;-73
2021/01/24 13:58:50;;;;;;;58.25;28.90;;;;;;;2.90;92.42;99574.72;6248257;28;20057;-73
2021/01/24 14:01:52;;;;;;;55.72;29.33;;;;;;;3.12;92.12;99577.28;6248352;28;20048;-72
2021/01/24 14:04:52;;;;;;;66.15;31.52;;;;;;;2.87;93.20;99572.28;6250755;28;20045;-72